Airfield :
LOGIN :

Register | Disclaimer

   EN    FR    IT 

 










Legend :    VFR   Marginal VFR   IFR   Intensive IFR   Very Intensive IFR
Visi :
Ceiling :
>= 8 km
>= 3000ft
5 to 8 km
1000 to 3000 ft
1500m to 5 km
500 to 1000 ft
800 to 1500m
200 to 500 ft
< 800m
< 200 ft
Symbols :   Thunderstorms  Fog  Heavy snow  Heavy precipitations  Wind > 20 kt
SIGMETs :     Misc.  Thunderstorms  Icing  Turbulence  Mountain Waves  Volcanic Ashes






- Airport Elevation : 3 ft
- IATA code : LWR


EHLW - Leuuwarden Air Base

CURRENT METAR :
  • 282025Z AUTO 32012KT 290V360 9999 -RA SCT019 BKN025 BKN029 11/08 Q1018 WHT

EXPIRED METARs :
  • 282015Z AUTO 32012KT 270V360 9999 FEW020 SCT024 BKN030 11/07 Q1019 WHT
  • 281955Z AUTO 32011KT 270V350 9999 FEW019 SCT024 BKN027 10/08 Q1019 REDZ WHT
  • 281942Z AUTO 32011KT 270V360 9999 DZRA FEW020 BKN039 BKN044 10/08 Q1019 BLU
  • 281925Z AUTO 32012KT 290V350 9999 -RA SCT036 BKN041 BKN046 10/07 Q1019 RERA REDZ BLU
  • 281905Z AUTO 33015KT 280V360 9999 DZRA FEW021 SCT026 BKN031 10/07 Q1019 BLU
  • 281855Z AUTO 32013KT 270V360 9999 FEW021 OVC058 11/07 Q1019 BLU
  • 281848Z AUTO 32014KT 280V360 9999 FEW022 SCT026 OVC058 11/07 Q1019 BLU
  • 281838Z AUTO 32013KT 280V350 9999 SCT023 SCT028 BKN033 11/07 Q1019 WHT
  • 281825Z AUTO 31014KT 280V360 9999 FEW023 OVC057 11/07 Q1019 BLU
  • 281755Z AUTO 32016KT 280V350 9999 BKN057 12/06 Q1019 BLU

TAF TAF EHLW
Valid from the 28 at 17:00 until the 29 at 05:00 UTC


281626Z 2817/2905 32013KT 9999 SCT020 BKN030



MET'MAP, your aeronautical weather chart ! - Copyright ORBIFLY December 2007 - Disclaimer

ORBIFLY MET'MAP TEAM :

Programming & Development : Alexandra Zaïnal
Original concept : Baudouin d'Aumeries
Technical & hardware support : Manuel Goepfert
Assistance : Marc-Olivier Méhu

Contact : metmap@orbifly.com




SOURCES & CREDITS :

   NOAA